Terminal Aerodrome Forecast
Issued by NWS Boston, MA

Home | Current Version | Previous Version | Text Only | Print | Product List | Glossary On
Versions: 1 2 3 4 5 6 7 8 9 10 11 12 13 14 15 16
000
FTUS41 KBOX 190534
TAFORH
TAF
KORH 190534Z 1906/2006 26005KT P6SM BKN200
     FM191100 29010KT P6SM FEW250
     FM191400 31013G21KT P6SM FEW250
     FM192200 35010G22KT P6SM SKC
     FM200200 35008KT P6SM SKC=

USA.gov is the U.S. government's official web portal to all federal, state and local government web resources and services.